sensor_id;sensor_type;location;lat;lon;timestamp;temperature;humidity
7972;DHT22;4031;49.758;6.120;2024-01-15T00:02:18;-3.40;99.90
7972;DHT22;4031;49.758;6.120;2024-01-15T00:04:44;-3.40;99.90
7972;DHT22;4031;49.758;6.120;2024-01-15T00:07:10;-3.30;99.90
7972;DHT22;4031;49.758;6.120;2024-01-15T00:09:36;-3.10;99.90
7972;DHT22;4031;49.758;6.120;2024-01-15T00:12:02;-3.30;99.90
7972;DHT22;4031;49.758;6.120;2024-01-15T00:14:28;-3.30;99.90
7972;DHT22;4031;49.758;6.120;2024-01-15T00:16:54;-3.30;99.90
7972;DHT22;4031;49.758;6.120;2024-01-15T00:19:21;-3.30;99.90
7972;DHT22;4031;49.758;6.120;2024-01-15T00:21:47;-3.20;99.90
7972;DHT22;4031;49.758;6.120;2024-01-15T00:24:13;-3.20;99.90
7972;DHT22;4031;49.758;6.120;2024-01-15T00:26:39;-3.20;99.90
7972;DHT22;4031;49.758;6.120;2024-01-15T00:29:07;-3.20;99.90
7972;DHT22;4031;49.758;6.120;2024-01-15T00:31:33;-3.10;99.90
7972;DHT22;4031;49.758;6.120;2024-01-15T00:33:59;-3.10;99.90
7972;DHT22;4031;49.758;6.120;2024-01-15T00:36:25;-3.10;99.90
7972;DHT22;4031;49.758;6.120;2024-01-15T00:38:51;-3.10;99.90
7972;DHT22;4031;49.758;6.120;2024-01-15T00:41:17;-3.10;99.90
7972;DHT22;4031;49.758;6.120;2024-01-15T00:43:46;-3.10;99.90
7972;DHT22;4031;49.758;6.120;2024-01-15T00:46:14;-3.10;99.90
7972;DHT22;4031;49.758;6.120;2024-01-15T00:48:40;-3.00;99.90
7972;DHT22;4031;49.758;6.120;2024-01-15T00:51:06;-3.00;99.90
7972;DHT22;4031;49.758;6.120;2024-01-15T00:53:32;-3.00;99.90
7972;DHT22;4031;49.758;6.120;2024-01-15T00:55:58;-3.00;99.90
7972;DHT22;4031;49.758;6.120;2024-01-15T00:58:24;-3.00;99.90
7972;DHT22;4031;49.758;6.120;2024-01-15T01:00:51;-3.00;99.90
7972;DHT22;4031;49.758;6.120;2024-01-15T01:03:16;-3.00;99.90
7972;DHT22;4031;49.758;6.120;2024-01-15T01:05:42;-3.00;99.90
7972;DHT22;4031;49.758;6.120;2024-01-15T01:08:09;-2.90;99.90
7972;DHT22;4031;49.758;6.120;2024-01-15T01:10:35;-2.90;99.90
7972;DHT22;4031;49.758;6.120;2024-01-15T01:13:00;-2.90;99.90
7972;DHT22;4031;49.758;6.120;2024-01-15T01:15:26;-2.90;99.90
7972;DHT22;4031;49.758;6.120;2024-01-15T01:17:53;-2.80;99.90
7972;DHT22;4031;49.758;6.120;2024-01-15T01:20:18;-2.80;99.90
7972;DHT22;4031;49.758;6.120;2024-01-15T01:22:44;-2.80;99.90
7972;DHT22;4031;49.758;6.120;2024-01-15T01:25:10;-2.80;99.90
7972;DHT22;4031;49.758;6.120;2024-01-15T01:27:35;-2.80;99.90
7972;DHT22;4031;49.758;6.120;2024-01-15T01:30:01;-2.80;99.90
7972;DHT22;4031;49.758;6.120;2024-01-15T01:32:28;-2.80;99.90
7972;DHT22;4031;49.758;6.120;2024-01-15T01:34:54;-2.70;99.90
7972;DHT22;4031;49.758;6.120;2024-01-15T01:37:20;-2.70;99.90
7972;DHT22;4031;49.758;6.120;2024-01-15T01:39:46;-2.70;99.90
7972;DHT22;4031;49.758;6.120;2024-01-15T01:42:12;-2.70;99.90
7972;DHT22;4031;49.758;6.120;2024-01-15T01:44:38;-2.70;99.90
7972;DHT22;4031;49.758;6.120;2024-01-15T01:47:04;-2.70;99.90
7972;DHT22;4031;49.758;6.120;2024-01-15T01:49:30;-2.70;99.90
7972;DHT22;4031;49.758;6.120;2024-01-15T01:51:57;-2.60;99.90
7972;DHT22;4031;49.758;6.120;2024-01-15T01:54:27;-2.70;99.90
7972;DHT22;4031;49.758;6.120;2024-01-15T01:56:55;-2.60;99.90
7972;DHT22;4031;49.758;6.120;2024-01-15T01:59:22;-2.60;99.90
7972;DHT22;4031;49.758;6.120;2024-01-15T02:01:49;-2.60;99.90
7972;DHT22;4031;49.758;6.120;2024-01-15T02:04:15;-2.60;99.90
7972;DHT22;4031;49.758;6.120;2024-01-15T02:06:41;-2.60;99.90
7972;DHT22;4031;49.758;6.120;2024-01-15T02:09:08;-2.60;99.90
7972;DHT22;4031;49.758;6.120;2024-01-15T02:11:34;-2.60;99.90
7972;DHT22;4031;49.758;6.120;2024-01-15T02:14:00;-2.60;99.90
7972;DHT22;4031;49.758;6.120;2024-01-15T02:16:26;-2.60;99.90
7972;DHT22;4031;49.758;6.120;2024-01-15T02:18:52;-2.50;99.90
7972;DHT22;4031;49.758;6.120;2024-01-15T02:21:18;-2.50;99.90
7972;DHT22;4031;49.758;6.120;2024-01-15T02:23:43;-2.50;99.90
7972;DHT22;4031;49.758;6.120;2024-01-15T02:26:09;-2.50;99.90
7972;DHT22;4031;49.758;6.120;2024-01-15T02:28:35;-2.50;99.90
7972;DHT22;4031;49.758;6.120;2024-01-15T02:31:01;-2.50;99.90
7972;DHT22;4031;49.758;6.120;2024-01-15T02:33:26;-2.50;99.90
7972;DHT22;4031;49.758;6.120;2024-01-15T02:35:52;-2.50;99.90
7972;DHT22;4031;49.758;6.120;2024-01-15T02:38:18;-2.50;99.90
7972;DHT22;4031;49.758;6.120;2024-01-15T02:40:44;-2.40;99.90
7972;DHT22;4031;49.758;6.120;2024-01-15T02:43:10;-2.40;99.90
7972;DHT22;4031;49.758;6.120;2024-01-15T02:45:37;-2.40;99.90
7972;DHT22;4031;49.758;6.120;2024-01-15T02:48:03;-2.40;99.90
7972;DHT22;4031;49.758;6.120;2024-01-15T02:50:29;-2.40;99.90
7972;DHT22;4031;49.758;6.120;2024-01-15T02:52:54;-2.40;99.90
7972;DHT22;4031;49.758;6.120;2024-01-15T02:55:20;-2.40;99.90
7972;DHT22;4031;49.758;6.120;2024-01-15T02:57:46;-2.40;99.90
7972;DHT22;4031;49.758;6.120;2024-01-15T03:00:12;-2.40;99.90
7972;DHT22;4031;49.758;6.120;2024-01-15T03:02:38;-2.40;99.90
7972;DHT22;4031;49.758;6.120;2024-01-15T03:05:06;-2.30;99.90
7972;DHT22;4031;49.758;6.120;2024-01-15T03:07:33;-2.30;99.90
7972;DHT22;4031;49.758;6.120;2024-01-15T03:09:59;-2.40;99.90
7972;DHT22;4031;49.758;6.120;2024-01-15T03:12:25;-2.30;99.90
7972;DHT22;4031;49.758;6.120;2024-01-15T03:14:50;-2.30;99.90
7972;DHT22;4031;49.758;6.120;2024-01-15T03:17:16;-2.30;99.90
7972;DHT22;4031;49.758;6.120;2024-01-15T03:19:42;-2.30;99.90
7972;DHT22;4031;49.758;6.120;2024-01-15T03:22:08;-2.30;99.90
7972;DHT22;4031;49.758;6.120;2024-01-15T03:24:34;-2.30;99.90
7972;DHT22;4031;49.758;6.120;2024-01-15T03:27:00;-2.20;99.90
7972;DHT22;4031;49.758;6.120;2024-01-15T03:29:27;-2.20;99.90
7972;DHT22;4031;49.758;6.120;2024-01-15T03:31:53;-2.20;99.90
7972;DHT22;4031;49.758;6.120;2024-01-15T03:34:18;-2.20;99.90
7972;DHT22;4031;49.758;6.120;2024-01-15T03:36:44;-2.20;99.90
7972;DHT22;4031;49.758;6.120;2024-01-15T03:39:10;-2.20;99.90
7972;DHT22;4031;49.758;6.120;2024-01-15T03:41:36;-2.20;99.90
7972;DHT22;4031;49.758;6.120;2024-01-15T03:44:01;-2.20;99.90
7972;DHT22;4031;49.758;6.120;2024-01-15T03:46:27;-2.10;99.90
7972;DHT22;4031;49.758;6.120;2024-01-15T03:48:53;-2.10;99.90
7972;DHT22;4031;49.758;6.120;2024-01-15T03:51:19;-2.20;99.90
7972;DHT22;4031;49.758;6.120;2024-01-15T03:53:45;-2.10;99.90
7972;DHT22;4031;49.758;6.120;2024-01-15T03:56:12;-2.10;99.90
7972;DHT22;4031;49.758;6.120;2024-01-15T03:58:38;-2.10;99.90
7972;DHT22;4031;49.758;6.120;2024-01-15T04:01:07;-2.10;99.90
7972;DHT22;4031;49.758;6.120;2024-01-15T04:03:34;-2.10;99.90
7972;DHT22;4031;49.758;6.120;2024-01-15T04:05:59;-2.10;99.90
7972;DHT22;4031;49.758;6.120;2024-01-15T04:08:25;-2.10;99.90
7972;DHT22;4031;49.758;6.120;2024-01-15T04:10:51;-2.10;99.90
7972;DHT22;4031;49.758;6.120;2024-01-15T04:13:16;-2.10;99.90
7972;DHT22;4031;49.758;6.120;2024-01-15T04:15:42;-2.00;99.90
7972;DHT22;4031;49.758;6.120;2024-01-15T04:18:08;-2.10;99.90
7972;DHT22;4031;49.758;6.120;2024-01-15T04:20:34;-2.00;99.90
7972;DHT22;4031;49.758;6.120;2024-01-15T04:23:00;-2.00;99.90
7972;DHT22;4031;49.758;6.120;2024-01-15T04:25:25;-2.00;99.90
7972;DHT22;4031;49.758;6.120;2024-01-15T04:27:51;-2.00;99.90
7972;DHT22;4031;49.758;6.120;2024-01-15T04:30:17;-2.00;99.90
7972;DHT22;4031;49.758;6.120;2024-01-15T04:32:42;-2.00;99.90
7972;DHT22;4031;49.758;6.120;2024-01-15T04:35:08;-2.00;99.90
7972;DHT22;4031;49.758;6.120;2024-01-15T04:37:34;-2.00;99.90
7972;DHT22;4031;49.758;6.120;2024-01-15T04:40:00;-2.00;99.90
7972;DHT22;4031;49.758;6.120;2024-01-15T04:42:25;-2.00;99.90
7972;DHT22;4031;49.758;6.120;2024-01-15T04:44:51;-2.00;99.90
7972;DHT22;4031;49.758;6.120;2024-01-15T04:47:17;-2.00;99.90
7972;DHT22;4031;49.758;6.120;2024-01-15T04:49:43;-2.00;99.90
7972;DHT22;4031;49.758;6.120;2024-01-15T04:52:08;-2.00;99.90
7972;DHT22;4031;49.758;6.120;2024-01-15T04:54:36;-2.00;99.90
7972;DHT22;4031;49.758;6.120;2024-01-15T04:57:02;-2.00;99.90
7972;DHT22;4031;49.758;6.120;2024-01-15T04:59:28;-2.00;99.90
7972;DHT22;4031;49.758;6.120;2024-01-15T05:01:55;-2.00;99.90
7972;DHT22;4031;49.758;6.120;2024-01-15T05:04:20;-2.00;99.90
7972;DHT22;4031;49.758;6.120;2024-01-15T05:06:46;-2.00;99.90
7972;DHT22;4031;49.758;6.120;2024-01-15T05:09:12;-2.00;99.90
7972;DHT22;4031;49.758;6.120;2024-01-15T05:11:39;-2.00;99.90
7972;DHT22;4031;49.758;6.120;2024-01-15T05:14:05;-2.00;99.90
7972;DHT22;4031;49.758;6.120;2024-01-15T05:16:30;-2.00;99.90
7972;DHT22;4031;49.758;6.120;2024-01-15T05:18:56;-2.00;99.90
7972;DHT22;4031;49.758;6.120;2024-01-15T05:21:22;-2.00;99.90
7972;DHT22;4031;49.758;6.120;2024-01-15T05:23:48;-2.00;99.90
7972;DHT22;4031;49.758;6.120;2024-01-15T05:26:13;-2.00;99.90
7972;DHT22;4031;49.758;6.120;2024-01-15T05:28:41;-2.00;99.90
7972;DHT22;4031;49.758;6.120;2024-01-15T05:31:08;-2.00;99.90
7972;DHT22;4031;49.758;6.120;2024-01-15T05:33:34;-2.00;99.90
7972;DHT22;4031;49.758;6.120;2024-01-15T05:36:00;-2.00;99.90
7972;DHT22;4031;49.758;6.120;2024-01-15T05:38:26;-2.00;99.90
7972;DHT22;4031;49.758;6.120;2024-01-15T05:40:52;-2.00;99.90
7972;DHT22;4031;49.758;6.120;2024-01-15T05:43:18;-2.00;99.90
7972;DHT22;4031;49.758;6.120;2024-01-15T05:45:44;-2.00;99.90
7972;DHT22;4031;49.758;6.120;2024-01-15T05:48:13;-2.00;99.90
7972;DHT22;4031;49.758;6.120;2024-01-15T05:50:39;-2.00;99.90
7972;DHT22;4031;49.758;6.120;2024-01-15T05:53:04;-2.00;99.90
7972;DHT22;4031;49.758;6.120;2024-01-15T05:55:30;-1.90;99.90
7972;DHT22;4031;49.758;6.120;2024-01-15T05:57:56;-1.90;99.90
7972;DHT22;4031;49.758;6.120;2024-01-15T06:00:22;-1.90;99.90
7972;DHT22;4031;49.758;6.120;2024-01-15T06:02:47;-1.90;99.90
7972;DHT22;4031;49.758;6.120;2024-01-15T06:05:13;-1.90;99.90
7972;DHT22;4031;49.758;6.120;2024-01-15T06:07:39;-1.90;99.90
7972;DHT22;4031;49.758;6.120;2024-01-15T06:10:05;-1.90;99.90
7972;DHT22;4031;49.758;6.120;2024-01-15T06:12:31;-1.80;99.90
7972;DHT22;4031;49.758;6.120;2024-01-15T06:14:58;-1.80;99.90
7972;DHT22;4031;49.758;6.120;2024-01-15T06:17:24;-1.80;99.90
7972;DHT22;4031;49.758;6.120;2024-01-15T06:19:50;-1.80;99.90
7972;DHT22;4031;49.758;6.120;2024-01-15T06:22:16;-1.80;99.90
7972;DHT22;4031;49.758;6.120;2024-01-15T06:24:41;-1.80;99.90
7972;DHT22;4031;49.758;6.120;2024-01-15T06:27:08;-1.80;99.90
7972;DHT22;4031;49.758;6.120;2024-01-15T06:29:33;-1.80;99.90
7972;DHT22;4031;49.758;6.120;2024-01-15T06:32:03;-1.80;99.90
7972;DHT22;4031;49.758;6.120;2024-01-15T06:34:29;-1.80;99.90
7972;DHT22;4031;49.758;6.120;2024-01-15T06:36:54;-1.80;99.90
7972;DHT22;4031;49.758;6.120;2024-01-15T06:39:20;-1.80;99.90
7972;DHT22;4031;49.758;6.120;2024-01-15T06:41:46;-1.80;99.90
7972;DHT22;4031;49.758;6.120;2024-01-15T06:44:12;-1.80;99.90
7972;DHT22;4031;49.758;6.120;2024-01-15T06:46:44;-1.80;99.90
7972;DHT22;4031;49.758;6.120;2024-01-15T06:49:10;-1.80;99.90
7972;DHT22;4031;49.758;6.120;2024-01-15T06:51:36;-1.80;99.90
7972;DHT22;4031;49.758;6.120;2024-01-15T06:54:02;-1.80;99.90
7972;DHT22;4031;49.758;6.120;2024-01-15T06:56:28;-1.80;99.90
7972;DHT22;4031;49.758;6.120;2024-01-15T06:58:54;-1.80;99.90
7972;DHT22;4031;49.758;6.120;2024-01-15T07:01:19;-1.80;99.90
7972;DHT22;4031;49.758;6.120;2024-01-15T07:03:45;-1.80;99.90
7972;DHT22;4031;49.758;6.120;2024-01-15T07:06:11;-1.80;99.90
7972;DHT22;4031;49.758;6.120;2024-01-15T07:08:39;-1.80;99.90
7972;DHT22;4031;49.758;6.120;2024-01-15T07:11:05;-1.80;99.90
7972;DHT22;4031;49.758;6.120;2024-01-15T07:13:31;-1.80;99.90
7972;DHT22;4031;49.758;6.120;2024-01-15T07:15:57;-1.80;99.90
7972;DHT22;4031;49.758;6.120;2024-01-15T07:18:23;-1.80;99.90
7972;DHT22;4031;49.758;6.120;2024-01-15T07:20:49;-1.80;99.90
7972;DHT22;4031;49.758;6.120;2024-01-15T07:23:15;-1.80;99.90
7972;DHT22;4031;49.758;6.120;2024-01-15T07:25:40;-1.80;99.90
7972;DHT22;4031;49.758;6.120;2024-01-15T07:28:06;-1.80;99.90
7972;DHT22;4031;49.758;6.120;2024-01-15T07:30:32;-1.80;99.90
7972;DHT22;4031;49.758;6.120;2024-01-15T07:32:58;-1.80;99.90
7972;DHT22;4031;49.758;6.120;2024-01-15T07:35:24;-1.80;99.90
7972;DHT22;4031;49.758;6.120;2024-01-15T07:37:49;-1.80;99.90
7972;DHT22;4031;49.758;6.120;2024-01-15T07:40:15;-1.80;99.90
7972;DHT22;4031;49.758;6.120;2024-01-15T07:42:41;-1.80;99.90
7972;DHT22;4031;49.758;6.120;2024-01-15T07:45:08;-1.70;99.90
7972;DHT22;4031;49.758;6.120;2024-01-15T07:47:35;-1.70;99.90
7972;DHT22;4031;49.758;6.120;2024-01-15T07:50:01;-1.70;99.90
7972;DHT22;4031;49.758;6.120;2024-01-15T07:52:27;-1.70;99.90
7972;DHT22;4031;49.758;6.120;2024-01-15T07:54:53;-1.70;99.90
7972;DHT22;4031;49.758;6.120;2024-01-15T07:57:18;-1.70;99.90
7972;DHT22;4031;49.758;6.120;2024-01-15T07:59:44;-1.60;99.90
7972;DHT22;4031;49.758;6.120;2024-01-15T08:02:10;-1.60;99.90
7972;DHT22;4031;49.758;6.120;2024-01-15T08:04:39;-1.60;99.90
7972;DHT22;4031;49.758;6.120;2024-01-15T08:07:05;-1.60;99.90
7972;DHT22;4031;49.758;6.120;2024-01-15T08:09:32;-1.60;99.90
7972;DHT22;4031;49.758;6.120;2024-01-15T08:11:58;-1.60;99.90
7972;DHT22;4031;49.758;6.120;2024-01-15T08:14:23;-1.50;99.90
7972;DHT22;4031;49.758;6.120;2024-01-15T08:16:49;-1.60;99.90
7972;DHT22;4031;49.758;6.120;2024-01-15T08:19:16;-1.50;99.90
7972;DHT22;4031;49.758;6.120;2024-01-15T08:21:41;-1.50;99.90
7972;DHT22;4031;49.758;6.120;2024-01-15T08:24:08;-1.50;99.90
7972;DHT22;4031;49.758;6.120;2024-01-15T08:26:34;-1.50;99.90
7972;DHT22;4031;49.758;6.120;2024-01-15T08:28:59;-1.50;99.90
7972;DHT22;4031;49.758;6.120;2024-01-15T08:31:25;-1.50;99.90
7972;DHT22;4031;49.758;6.120;2024-01-15T08:33:52;-1.50;99.90
7972;DHT22;4031;49.758;6.120;2024-01-15T08:36:18;-1.50;99.90
7972;DHT22;4031;49.758;6.120;2024-01-15T08:38:44;-1.50;99.90
7972;DHT22;4031;49.758;6.120;2024-01-15T08:41:10;-1.40;99.90
7972;DHT22;4031;49.758;6.120;2024-01-15T08:43:36;-1.40;99.90
7972;DHT22;4031;49.758;6.120;2024-01-15T08:46:02;-1.40;99.90
7972;DHT22;4031;49.758;6.120;2024-01-15T08:48:28;-1.30;99.90
7972;DHT22;4031;49.758;6.120;2024-01-15T08:50:54;-1.30;99.90
7972;DHT22;4031;49.758;6.120;2024-01-15T08:53:21;-1.20;99.90
7972;DHT22;4031;49.758;6.120;2024-01-15T08:55:50;-1.20;99.90
7972;DHT22;4031;49.758;6.120;2024-01-15T08:58:16;-1.20;99.90
7972;DHT22;4031;49.758;6.120;2024-01-15T09:00:42;-1.10;99.90
7972;DHT22;4031;49.758;6.120;2024-01-15T09:03:08;-1.00;99.90
7972;DHT22;4031;49.758;6.120;2024-01-15T09:05:34;-1.00;99.90
7972;DHT22;4031;49.758;6.120;2024-01-15T09:08:00;-0.90;99.90
7972;DHT22;4031;49.758;6.120;2024-01-15T09:10:26;-0.90;99.90
7972;DHT22;4031;49.758;6.120;2024-01-15T09:12:52;-0.80;99.90
7972;DHT22;4031;49.758;6.120;2024-01-15T09:15:18;-0.90;99.90
7972;DHT22;4031;49.758;6.120;2024-01-15T09:17:45;-0.80;99.90
7972;DHT22;4031;49.758;6.120;2024-01-15T09:20:11;-0.90;99.90
7972;DHT22;4031;49.758;6.120;2024-01-15T09:22:40;-0.90;99.90
7972;DHT22;4031;49.758;6.120;2024-01-15T09:25:08;-0.90;99.90
7972;DHT22;4031;49.758;6.120;2024-01-15T09:27:35;-0.90;99.90
7972;DHT22;4031;49.758;6.120;2024-01-15T09:30:02;-0.80;99.90
7972;DHT22;4031;49.758;6.120;2024-01-15T09:32:30;-0.80;99.90
7972;DHT22;4031;49.758;6.120;2024-01-15T09:34:56;-0.70;99.90
7972;DHT22;4031;49.758;6.120;2024-01-15T09:37:21;-0.70;99.90
7972;DHT22;4031;49.758;6.120;2024-01-15T09:39:49;-0.70;99.90
7972;DHT22;4031;49.758;6.120;2024-01-15T09:42:16;-0.60;99.90
7972;DHT22;4031;49.758;6.120;2024-01-15T09:44:45;-0.50;99.90
7972;DHT22;4031;49.758;6.120;2024-01-15T09:47:12;-0.50;99.90
7972;DHT22;4031;49.758;6.120;2024-01-15T09:49:41;-0.50;99.90
7972;DHT22;4031;49.758;6.120;2024-01-15T09:52:07;-0.40;99.90
7972;DHT22;4031;49.758;6.120;2024-01-15T09:54:33;-0.30;99.90
7972;DHT22;4031;49.758;6.120;2024-01-15T09:57:03;-0.20;99.90
7972;DHT22;4031;49.758;6.120;2024-01-15T09:59:31;-0.10;99.90
7972;DHT22;4031;49.758;6.120;2024-01-15T10:01:57;-0.10;99.90
7972;DHT22;4031;49.758;6.120;2024-01-15T10:04:24;0.00;99.90
7972;DHT22;4031;49.758;6.120;2024-01-15T10:06:51;0.10;99.90
7972;DHT22;4031;49.758;6.120;2024-01-15T10:09:18;0.20;99.90
7972;DHT22;4031;49.758;6.120;2024-01-15T10:11:44;0.30;99.90
7972;DHT22;4031;49.758;6.120;2024-01-15T10:14:11;0.20;99.90
7972;DHT22;4031;49.758;6.120;2024-01-15T10:16:41;0.30;99.90
7972;DHT22;4031;49.758;6.120;2024-01-15T10:19:10;0.30;99.90
7972;DHT22;4031;49.758;6.120;2024-01-15T10:21:36;0.40;99.90
7972;DHT22;4031;49.758;6.120;2024-01-15T10:24:03;0.50;99.90
7972;DHT22;4031;49.758;6.120;2024-01-15T10:26:30;0.80;99.90
7972;DHT22;4031;49.758;6.120;2024-01-15T10:29:00;1.10;99.90
7972;DHT22;4031;49.758;6.120;2024-01-15T10:31:26;1.30;99.90
7972;DHT22;4031;49.758;6.120;2024-01-15T10:33:53;1.30;99.90
7972;DHT22;4031;49.758;6.120;2024-01-15T10:36:20;1.40;99.90
7972;DHT22;4031;49.758;6.120;2024-01-15T10:38:46;1.20;99.90
7972;DHT22;4031;49.758;6.120;2024-01-15T10:41:12;1.10;99.90
7972;DHT22;4031;49.758;6.120;2024-01-15T10:43:38;1.10;99.90
7972;DHT22;4031;49.758;6.120;2024-01-15T10:46:07;1.10;99.90
7972;DHT22;4031;49.758;6.120;2024-01-15T10:48:33;1.10;99.90
7972;DHT22;4031;49.758;6.120;2024-01-15T10:51:02;1.20;99.90
7972;DHT22;4031;49.758;6.120;2024-01-15T10:53:38;1.20;99.90
7972;DHT22;4031;49.758;6.120;2024-01-15T10:56:06;1.20;99.90
7972;DHT22;4031;49.758;6.120;2024-01-15T10:58:33;1.10;99.90
7972;DHT22;4031;49.758;6.120;2024-01-15T11:01:01;0.90;99.90
7972;DHT22;4031;49.758;6.120;2024-01-15T11:03:28;0.80;99.90
7972;DHT22;4031;49.758;6.120;2024-01-15T11:05:53;0.70;99.90
7972;DHT22;4031;49.758;6.120;2024-01-15T11:08:20;0.60;99.90
7972;DHT22;4031;49.758;6.120;2024-01-15T11:10:48;0.60;99.90
7972;DHT22;4031;49.758;6.120;2024-01-15T11:23:56;2.20;99.90
7972;DHT22;4031;49.758;6.120;2024-01-15T11:26:30;2.60;99.90
7972;DHT22;4031;49.758;6.120;2024-01-15T11:28:57;2.70;99.90
7972;DHT22;4031;49.758;6.120;2024-01-15T11:34:15;2.90;99.90
7972;DHT22;4031;49.758;6.120;2024-01-15T11:42:02;4.00;99.90
7972;DHT22;4031;49.758;6.120;2024-01-15T11:44:29;3.60;99.90
7972;DHT22;4031;49.758;6.120;2024-01-15T11:47:05;3.30;99.90
7972;DHT22;4031;49.758;6.120;2024-01-15T11:52:38;4.00;99.90
7972;DHT22;4031;49.758;6.120;2024-01-15T11:55:12;3.40;99.90
7972;DHT22;4031;49.758;6.120;2024-01-15T11:57:45;3.00;99.90
7972;DHT22;4031;49.758;6.120;2024-01-15T12:00:20;2.60;99.90
7972;DHT22;4031;49.758;6.120;2024-01-15T12:02:48;2.60;99.90
7972;DHT22;4031;49.758;6.120;2024-01-15T12:05:15;3.10;99.90
7972;DHT22;4031;49.758;6.120;2024-01-15T12:07:43;3.30;99.90
7972;DHT22;4031;49.758;6.120;2024-01-15T12:10:11;3.40;99.90
7972;DHT22;4031;49.758;6.120;2024-01-15T12:15:09;4.50;99.90
7972;DHT22;4031;49.758;6.120;2024-01-15T12:17:35;4.80;99.90
7972;DHT22;4031;49.758;6.120;2024-01-15T12:20:05;5.10;99.90
7972;DHT22;4031;49.758;6.120;2024-01-15T12:22:31;5.30;99.90
7972;DHT22;4031;49.758;6.120;2024-01-15T12:24:57;5.80;99.90
7972;DHT22;4031;49.758;6.120;2024-01-15T12:27:24;5.90;99.90
7972;DHT22;4031;49.758;6.120;2024-01-15T12:29:53;5.50;99.90
7972;DHT22;4031;49.758;6.120;2024-01-15T12:32:19;5.20;99.90
7972;DHT22;4031;49.758;6.120;2024-01-15T12:34:46;5.20;99.90
7972;DHT22;4031;49.758;6.120;2024-01-15T12:37:11;5.00;99.90
7972;DHT22;4031;49.758;6.120;2024-01-15T12:39:37;4.40;99.90
7972;DHT22;4031;49.758;6.120;2024-01-15T12:42:03;3.70;99.90
7972;DHT22;4031;49.758;6.120;2024-01-15T12:44:31;3.60;99.90
7972;DHT22;4031;49.758;6.120;2024-01-15T12:46:57;3.70;99.90
7972;DHT22;4031;49.758;6.120;2024-01-15T12:49:24;3.60;99.90
7972;DHT22;4031;49.758;6.120;2024-01-15T12:51:59;3.90;99.90
7972;DHT22;4031;49.758;6.120;2024-01-15T12:54:26;4.00;99.90
7972;DHT22;4031;49.758;6.120;2024-01-15T12:56:52;3.60;99.90
7972;DHT22;4031;49.758;6.120;2024-01-15T12:59:18;3.40;99.90
7972;DHT22;4031;49.758;6.120;2024-01-15T13:01:45;3.10;99.90
7972;DHT22;4031;49.758;6.120;2024-01-15T13:04:12;2.80;99.90
7972;DHT22;4031;49.758;6.120;2024-01-15T13:06:46;2.50;99.90
7972;DHT22;4031;49.758;6.120;2024-01-15T13:09:12;2.40;99.90
7972;DHT22;4031;49.758;6.120;2024-01-15T13:11:38;2.40;99.90
7972;DHT22;4031;49.758;6.120;2024-01-15T13:14:03;2.40;99.90
7972;DHT22;4031;49.758;6.120;2024-01-15T13:16:29;2.40;99.90
7972;DHT22;4031;49.758;6.120;2024-01-15T13:18:55;2.50;99.90
7972;DHT22;4031;49.758;6.120;2024-01-15T13:21:22;2.70;99.90
7972;DHT22;4031;49.758;6.120;2024-01-15T13:23:48;2.90;99.90
7972;DHT22;4031;49.758;6.120;2024-01-15T13:26:14;2.90;99.90
7972;DHT22;4031;49.758;6.120;2024-01-15T13:28:39;2.80;99.90
7972;DHT22;4031;49.758;6.120;2024-01-15T13:31:06;2.70;99.90
7972;DHT22;4031;49.758;6.120;2024-01-15T13:33:32;2.50;99.90
7972;DHT22;4031;49.758;6.120;2024-01-15T13:35:57;2.50;99.90
7972;DHT22;4031;49.758;6.120;2024-01-15T13:38:23;2.50;99.90
7972;DHT22;4031;49.758;6.120;2024-01-15T13:40:49;2.40;99.90
7972;DHT22;4031;49.758;6.120;2024-01-15T13:43:15;2.20;99.90
7972;DHT22;4031;49.758;6.120;2024-01-15T13:45:41;2.10;99.90
7972;DHT22;4031;49.758;6.120;2024-01-15T13:48:07;2.00;99.90
7972;DHT22;4031;49.758;6.120;2024-01-15T13:50:34;2.10;99.90
7972;DHT22;4031;49.758;6.120;2024-01-15T13:53:01;2.40;99.90
7972;DHT22;4031;49.758;6.120;2024-01-15T13:55:29;2.80;99.90
7972;DHT22;4031;49.758;6.120;2024-01-15T13:57:55;3.30;99.90
7972;DHT22;4031;49.758;6.120;2024-01-15T14:00:22;3.60;99.90
7972;DHT22;4031;49.758;6.120;2024-01-15T14:02:49;3.70;99.90
7972;DHT22;4031;49.758;6.120;2024-01-15T14:05:14;3.70;99.90
7972;DHT22;4031;49.758;6.120;2024-01-15T14:07:41;3.50;99.90
7972;DHT22;4031;49.758;6.120;2024-01-15T14:10:09;3.20;99.90
7972;DHT22;4031;49.758;6.120;2024-01-15T14:12:35;2.90;99.90
7972;DHT22;4031;49.758;6.120;2024-01-15T14:15:05;2.90;99.90
7972;DHT22;4031;49.758;6.120;2024-01-15T14:17:31;3.00;99.90
7972;DHT22;4031;49.758;6.120;2024-01-15T14:19:57;2.90;99.90
7972;DHT22;4031;49.758;6.120;2024-01-15T14:22:23;2.60;99.90
7972;DHT22;4031;49.758;6.120;2024-01-15T14:24:48;2.40;99.90
7972;DHT22;4031;49.758;6.120;2024-01-15T14:27:15;2.10;99.90
7972;DHT22;4031;49.758;6.120;2024-01-15T14:29:41;2.10;99.90
7972;DHT22;4031;49.758;6.120;2024-01-15T14:32:07;2.40;99.90
7972;DHT22;4031;49.758;6.120;2024-01-15T14:34:32;2.40;99.90
7972;DHT22;4031;49.758;6.120;2024-01-15T14:36:58;2.30;99.90
7972;DHT22;4031;49.758;6.120;2024-01-15T14:39:25;2.70;99.90
7972;DHT22;4031;49.758;6.120;2024-01-15T14:41:53;3.20;99.90
7972;DHT22;4031;49.758;6.120;2024-01-15T14:44:19;3.50;99.90
7972;DHT22;4031;49.758;6.120;2024-01-15T14:46:44;3.60;99.90
7972;DHT22;4031;49.758;6.120;2024-01-15T14:49:11;3.40;99.90
7972;DHT22;4031;49.758;6.120;2024-01-15T14:51:37;3.00;99.90
7972;DHT22;4031;49.758;6.120;2024-01-15T14:54:02;2.50;99.90
7972;DHT22;4031;49.758;6.120;2024-01-15T14:56:28;2.20;99.90
7972;DHT22;4031;49.758;6.120;2024-01-15T14:58:54;2.20;99.90
7972;DHT22;4031;49.758;6.120;2024-01-15T15:01:22;2.20;99.90
7972;DHT22;4031;49.758;6.120;2024-01-15T15:03:48;2.10;99.90
7972;DHT22;4031;49.758;6.120;2024-01-15T15:06:14;2.10;99.90
7972;DHT22;4031;49.758;6.120;2024-01-15T15:08:39;2.10;99.90
7972;DHT22;4031;49.758;6.120;2024-01-15T15:11:06;2.00;99.90
7972;DHT22;4031;49.758;6.120;2024-01-15T15:13:33;1.70;99.90
7972;DHT22;4031;49.758;6.120;2024-01-15T15:16:00;1.50;99.90
7972;DHT22;4031;49.758;6.120;2024-01-15T15:18:26;1.30;99.90
7972;DHT22;4031;49.758;6.120;2024-01-15T15:20:51;1.30;99.90
7972;DHT22;4031;49.758;6.120;2024-01-15T15:23:18;1.20;99.90
7972;DHT22;4031;49.758;6.120;2024-01-15T15:25:43;1.20;99.90
7972;DHT22;4031;49.758;6.120;2024-01-15T15:28:09;1.20;99.90
7972;DHT22;4031;49.758;6.120;2024-01-15T15:30:37;1.20;99.90
7972;DHT22;4031;49.758;6.120;2024-01-15T15:33:03;1.10;99.90
7972;DHT22;4031;49.758;6.120;2024-01-15T15:35:31;1.10;99.90
7972;DHT22;4031;49.758;6.120;2024-01-15T15:37:57;1.00;99.90
7972;DHT22;4031;49.758;6.120;2024-01-15T15:40:23;0.80;99.90
7972;DHT22;4031;49.758;6.120;2024-01-15T15:42:52;0.80;99.90
7972;DHT22;4031;49.758;6.120;2024-01-15T15:45:18;0.70;99.90
7972;DHT22;4031;49.758;6.120;2024-01-15T15:47:44;0.60;99.90
7972;DHT22;4031;49.758;6.120;2024-01-15T15:50:10;0.50;99.90
7972;DHT22;4031;49.758;6.120;2024-01-15T15:52:35;0.50;99.90
7972;DHT22;4031;49.758;6.120;2024-01-15T15:55:02;0.40;99.90
7972;DHT22;4031;49.758;6.120;2024-01-15T15:57:28;0.40;99.90
7972;DHT22;4031;49.758;6.120;2024-01-15T15:59:55;0.40;99.90
7972;DHT22;4031;49.758;6.120;2024-01-15T16:02:21;0.30;99.90
7972;DHT22;4031;49.758;6.120;2024-01-15T16:04:46;0.30;99.90
7972;DHT22;4031;49.758;6.120;2024-01-15T16:07:12;0.30;99.90
7972;DHT22;4031;49.758;6.120;2024-01-15T16:09:39;0.20;99.90
7972;DHT22;4031;49.758;6.120;2024-01-15T16:12:07;0.20;99.90
7972;DHT22;4031;49.758;6.120;2024-01-15T16:14:33;0.20;99.90
7972;DHT22;4031;49.758;6.120;2024-01-15T16:16:59;0.20;99.90
7972;DHT22;4031;49.758;6.120;2024-01-15T16:19:26;0.20;99.90
7972;DHT22;4031;49.758;6.120;2024-01-15T16:21:51;0.10;99.90
7972;DHT22;4031;49.758;6.120;2024-01-15T16:24:18;0.00;99.90
7972;DHT22;4031;49.758;6.120;2024-01-15T16:26:45;0.00;99.90